SCBN weather

Cotreumo Airport
Rio Bueno, Los Ríos Region, Chile

Public forecast

Using degrees Celsius for public forecast. Weather courtesy of forecast.io.

Closest aviation weather report (METAR) to Cotreumo Airport

Report is more than 6 hours old.

Closest report is Cañal Bajo Carlos - Hott Siebert Airport, 22.2 nm (41.1 km) SW. Retrieved 2019/10/19 21:00 UTC (8 hours ago):

SCJO 192100Z 35004KT CAVOK 23/13 Q1012

Closest aviation forecast (TAF) to Cotreumo Airport

Forecast is more than 12 hours old.

Closest forecast is Cañal Bajo Carlos - Hott Siebert Airport, 22.2 nm (41.1 km) SW. Retrieved 2019/10/19 12:33 UTC (17 hours ago):

TAF SCJO 191009Z 1912/1924 19010KT 9999 BKN008 TN10/1912Z TX24/1918Z BECMG 1912/1914 VRB02KT SCT016 BECMG 1915/1917 CAVOK BECMG 1922/1924 26010KT 9999 FEW016